createdAt,value
2023-02-22T00:03:51.527Z,17.75
2023-02-22T00:08:53.319Z,17.77
2023-02-22T00:13:57.249Z,19.15
2023-02-22T00:18:58.750Z,19.00
2023-02-22T00:24:00.038Z,16.58
2023-02-22T00:29:01.410Z,21.80
2023-02-22T00:34:02.656Z,16.60
2023-02-22T00:39:03.919Z,15.65
2023-02-22T00:44:05.223Z,20.17
2023-02-22T00:49:06.560Z,15.98
2023-02-22T00:54:08.214Z,17.10
2023-02-22T00:59:09.500Z,15.75
2023-02-22T01:04:10.793Z,16.63
2023-02-22T01:09:12.062Z,15.97
2023-02-22T01:14:13.355Z,15.00
2023-02-22T01:19:14.626Z,13.23
2023-02-22T01:24:16.754Z,15.65
2023-02-22T01:29:18.474Z,18.40
2023-02-22T01:34:20.025Z,15.40
2023-02-22T01:39:21.292Z,15.40
2023-02-22T01:44:31.584Z,17.20
2023-02-22T01:49:36.895Z,15.65
2023-02-22T01:54:40.723Z,15.82
2023-02-22T01:59:44.444Z,15.40
2023-02-22T02:04:45.942Z,15.73
2023-02-22T02:09:51.834Z,15.38
2023-02-22T02:14:53.412Z,14.27
2023-02-22T02:19:54.645Z,15.45
2023-02-22T02:25:19.000Z,12.67
2023-02-22T02:30:36.936Z,13.75
2023-02-22T02:35:59.845Z,13.18
2023-02-22T02:41:04.734Z,16.80
2023-02-22T02:46:09.117Z,13.45
2023-02-22T02:51:11.320Z,13.90
2023-02-22T02:56:12.705Z,11.18
2023-02-22T03:01:15.230Z,17.17
2023-02-22T03:06:26.998Z,12.85
2023-02-22T03:11:31.342Z,12.15
2023-02-22T03:16:32.673Z,14.13
2023-02-22T03:21:47.901Z,13.40
2023-02-22T03:26:56.823Z,11.90
2023-02-22T03:32:01.820Z,15.23
2023-02-22T03:37:06.455Z,13.57
2023-02-22T03:42:14.388Z,12.00
2023-02-22T03:47:21.649Z,12.70
2023-02-22T03:52:25.697Z,11.27
2023-02-22T03:57:29.852Z,11.75
2023-02-22T04:02:31.108Z,11.73
2023-02-22T04:07:32.365Z,13.10
2023-02-22T04:12:33.690Z,13.27
2023-02-22T04:17:34.972Z,13.90
2023-02-22T04:22:36.255Z,12.40
2023-02-22T04:27:37.544Z,14.75
2023-02-22T04:32:39.357Z,12.20
2023-02-22T04:37:40.686Z,12.82
2023-02-22T04:42:42.122Z,12.05
2023-02-22T04:47:43.436Z,14.98
2023-02-22T04:52:45.648Z,12.43
2023-02-22T04:57:46.922Z,12.77
2023-02-22T05:02:48.415Z,13.93
2023-02-22T05:07:50.146Z,16.20
2023-02-22T05:12:51.788Z,10.95
2023-02-22T05:17:53.475Z,14.40
2023-02-22T05:22:55.675Z,15.53
2023-02-22T05:27:58.623Z,12.93
2023-02-22T05:33:00.484Z,15.15
2023-02-22T05:38:03.533Z,13.15
2023-02-22T05:43:04.805Z,16.50
2023-02-22T05:48:06.082Z,12.77
2023-02-22T05:53:07.540Z,15.68
2023-02-22T05:58:08.822Z,14.75
2023-02-22T06:03:10.789Z,16.45
2023-02-22T06:08:12.091Z,13.57
2023-02-22T06:13:13.392Z,26.37
2023-02-22T06:18:14.714Z,12.63
2023-02-22T06:23:15.991Z,17.20
2023-02-22T06:28:17.242Z,14.38
2023-02-22T06:33:18.517Z,24.02
2023-02-22T06:38:23.421Z,11.63
2023-02-22T06:43:24.947Z,13.65
2023-02-22T06:48:26.251Z,12.88
2023-02-22T06:53:27.883Z,13.27
2023-02-22T06:58:29.165Z,17.83
2023-02-22T07:03:30.455Z,13.77
2023-02-22T07:08:31.759Z,13.10
2023-02-22T07:13:33.015Z,12.18
2023-02-22T07:18:34.425Z,14.45
2023-02-22T07:23:36.168Z,14.73
2023-02-22T07:28:37.498Z,15.43
2023-02-22T07:33:38.769Z,14.05
2023-02-22T07:38:40.569Z,21.73
2023-02-22T07:43:41.844Z,12.10
2023-02-22T07:48:43.227Z,13.68
2023-02-22T07:53:44.546Z,13.13
2023-02-22T07:58:45.858Z,12.18
2023-02-22T08:03:47.567Z,14.73
2023-02-22T08:08:48.913Z,13.75
2023-02-22T08:13:50.173Z,13.43
2023-02-22T08:18:51.475Z,14.47
2023-02-22T08:23:54.251Z,16.08
2023-02-22T08:28:55.631Z,11.27
2023-02-22T08:33:57.092Z,18.80
2023-02-22T08:38:58.917Z,13.85
2023-02-22T08:44:02.383Z,15.93
2023-02-22T08:49:03.686Z,14.20
2023-02-22T08:54:06.834Z,12.13
2023-02-22T08:59:08.534Z,11.90
2023-02-22T09:04:09.916Z,12.95
2023-02-22T09:09:11.219Z,13.30
2023-02-22T09:14:14.411Z,17.42
2023-02-22T09:19:15.714Z,13.48
2023-02-22T09:24:17.013Z,46.73
2023-02-22T09:29:22.643Z,14.75
2023-02-22T09:34:29.531Z,11.37
2023-02-22T09:39:31.048Z,15.70
2023-02-22T09:44:38.968Z,20.10
2023-02-22T09:49:47.244Z,11.97
2023-02-22T09:54:52.053Z,32.75
2023-02-22T10:00:13.178Z,18.33
2023-02-22T10:05:20.905Z,9.70
2023-02-22T10:10:23.275Z,9.75
2023-02-22T10:15:42.382Z,9.33
2023-02-22T10:21:07.635Z,8.88
2023-02-22T10:26:14.733Z,12.83
2023-02-22T10:31:28.259Z,8.23
2023-02-22T10:36:29.768Z,10.30
2023-02-22T10:41:32.391Z,8.43
2023-02-22T10:46:34.164Z,10.95
2023-02-22T10:51:35.446Z,13.57
2023-02-22T10:56:46.200Z,12.10
2023-02-22T11:01:47.576Z,18.17
2023-02-22T11:07:06.419Z,17.73
2023-02-22T11:12:09.229Z,36.50
2023-02-22T11:17:13.851Z,13.60
2023-02-22T11:22:23.337Z,20.80
2023-02-22T11:27:31.647Z,32.88
2023-02-22T11:32:33.079Z,16.07
2023-02-22T11:37:36.418Z,20.17
2023-02-22T11:42:37.775Z,15.57
2023-02-22T11:47:56.178Z,14.48
2023-02-22T11:53:18.221Z,16.38
2023-02-22T11:58:42.887Z,17.10
2023-02-22T12:03:58.377Z,14.60
2023-02-22T12:09:33.001Z,14.40
2023-02-22T12:14:43.279Z,16.05
2023-02-22T12:19:50.065Z,18.33
2023-02-22T12:25:09.733Z,16.73
2023-02-22T12:30:14.668Z,17.00
2023-02-22T12:35:21.516Z,20.30
2023-02-22T12:40:37.909Z,16.97
2023-02-22T12:45:50.661Z,16.67
2023-02-22T12:50:58.058Z,15.60
2023-02-22T12:56:03.821Z,16.57
2023-02-22T13:01:14.684Z,17.70
2023-02-22T13:06:42.165Z,15.73
2023-02-22T13:11:46.255Z,17.70
2023-02-22T13:16:53.476Z,14.27
2023-02-22T13:21:54.785Z,19.63
2023-02-22T13:26:58.830Z,20.50
2023-02-22T13:32:12.420Z,16.23
2023-02-22T13:37:30.242Z,15.60
2023-02-22T13:42:52.242Z,19.55
2023-02-22T13:47:53.518Z,46.93
2023-02-22T13:52:55.824Z,35.43
2023-02-22T13:58:05.703Z,24.08
2023-02-22T14:03:18.018Z,21.50
2023-02-22T14:08:19.365Z,16.33
2023-02-22T14:13:22.647Z,17.38
2023-02-22T14:18:24.642Z,18.87
2023-02-22T14:23:33.620Z,20.10
2023-02-22T14:28:43.417Z,26.45
2023-02-22T14:33:53.744Z,25.33
2023-02-22T14:38:58.138Z,21.70
2023-02-22T14:44:03.679Z,19.70
2023-02-22T14:49:09.887Z,28.17
2023-02-22T14:54:18.456Z,24.27
2023-02-22T14:59:21.513Z,19.23
2023-02-22T15:04:28.001Z,46.63
2023-02-22T15:09:34.388Z,27.00
2023-02-22T15:14:40.861Z,24.27
2023-02-22T15:19:42.345Z,23.97
2023-02-22T15:24:44.005Z,21.40
2023-02-22T15:29:45.773Z,20.50
2023-02-22T15:34:47.060Z,23.33
2023-02-22T15:39:48.278Z,18.25
2023-02-22T15:44:52.389Z,27.17
2023-02-22T15:50:15.171Z,20.23
2023-02-22T15:55:17.081Z,19.80
2023-02-22T16:00:20.084Z,20.93
2023-02-22T16:05:32.042Z,24.27
2023-02-22T16:10:36.955Z,23.50
2023-02-22T16:15:38.296Z,23.23
2023-02-22T16:20:39.581Z,33.17
2023-02-22T16:25:41.853Z,21.02
2023-02-22T16:30:43.257Z,29.43
2023-02-22T16:35:51.918Z,29.35
2023-02-22T16:40:55.165Z,29.02
2023-02-22T16:45:56.487Z,38.70
2023-02-22T16:51:02.410Z,32.58
2023-02-22T16:56:05.204Z,25.87
2023-02-22T17:01:06.670Z,25.10
2023-02-22T17:06:10.454Z,30.05
2023-02-22T17:11:12.793Z,29.97
2023-02-22T17:16:14.806Z,27.95
2023-02-22T17:21:16.660Z,28.03
2023-02-22T17:26:18.246Z,39.90
2023-02-22T17:31:22.017Z,25.25
2023-02-22T17:36:23.610Z,30.00
2023-02-22T17:41:25.180Z,27.88
2023-02-22T17:46:26.592Z,30.53
2023-02-22T17:51:27.942Z,34.47
2023-02-22T17:56:29.312Z,27.20
2023-02-22T18:01:31.568Z,24.83
2023-02-22T18:06:32.994Z,39.72
2023-02-22T18:11:34.295Z,33.90
2023-02-22T18:16:36.745Z,32.17
2023-02-22T18:21:38.736Z,28.60
2023-02-22T18:26:40.214Z,27.43
2023-02-22T18:31:41.529Z,25.17
2023-02-22T18:36:42.940Z,26.43
2023-02-22T18:41:48.471Z,22.23
2023-02-22T18:46:49.819Z,29.75
2023-02-22T18:51:51.124Z,27.70
2023-02-22T18:56:52.387Z,27.48
2023-02-22T19:01:53.726Z,23.10
2023-02-22T19:06:55.314Z,25.73
2023-02-22T19:11:56.562Z,28.30
2023-02-22T19:17:01.395Z,30.10
2023-02-22T19:22:02.645Z,31.42
2023-02-22T19:27:05.319Z,34.27
2023-02-22T19:32:07.719Z,48.05
2023-02-22T19:37:11.112Z,37.78
2023-02-22T19:42:12.355Z,35.53
2023-02-22T19:47:13.664Z,32.92
2023-02-22T19:52:14.907Z,32.07
2023-02-22T19:57:16.206Z,30.77
2023-02-22T20:02:17.734Z,35.10
2023-02-22T20:07:19.054Z,39.73
2023-02-22T20:12:21.389Z,38.28
2023-02-22T20:17:22.656Z,40.27
2023-02-22T20:22:23.973Z,39.13
2023-02-22T20:27:25.369Z,43.10
2023-02-22T20:32:29.903Z,40.90
2023-02-22T20:37:31.920Z,40.03
2023-02-22T20:42:33.231Z,41.33
2023-02-22T20:47:34.623Z,36.97
2023-02-22T20:52:36.113Z,41.58
2023-02-22T20:57:37.865Z,37.70
2023-02-22T21:02:39.157Z,40.15
2023-02-22T21:07:40.450Z,34.60
2023-02-22T21:12:42.797Z,43.00
2023-02-22T21:17:47.530Z,43.75
2023-02-22T21:22:50.836Z,41.87
2023-02-22T21:27:52.794Z,38.05
2023-02-22T21:32:54.729Z,36.93
2023-02-22T21:37:56.050Z,43.80
2023-02-22T21:42:57.590Z,42.00
2023-02-22T21:47:59.366Z,38.03
2023-02-22T21:53:00.686Z,38.60
2023-02-22T21:58:01.999Z,39.43
2023-02-22T22:03:09.691Z,38.28
2023-02-22T22:08:16.484Z,44.20
2023-02-22T22:13:17.845Z,38.27
2023-02-22T22:18:19.196Z,39.42
2023-02-22T22:23:20.522Z,43.37
2023-02-22T22:28:21.794Z,46.05
2023-02-22T22:33:23.113Z,44.25
2023-02-22T22:38:26.623Z,40.00
2023-02-22T22:43:29.200Z,45.95
2023-02-22T22:48:31.420Z,48.53
2023-02-22T22:53:33.944Z,45.42
2023-02-22T22:58:35.560Z,50.20
2023-02-22T23:03:36.993Z,45.13
2023-02-22T23:08:42.959Z,48.38
2023-02-22T23:13:44.523Z,40.53
2023-02-22T23:18:45.883Z,46.63
2023-02-22T23:23:51.509Z,45.50
2023-02-22T23:28:54.702Z,50.73
2023-02-22T23:33:58.383Z,44.13
2023-02-22T23:38:59.674Z,43.97
2023-02-22T23:44:00.920Z,43.20
2023-02-22T23:49:02.702Z,43.20
2023-02-22T23:54:06.015Z,39.37
2023-02-22T23:59:12.483Z,40.65
